sensor_id;sensor_type;location;lat;lon;timestamp;temperature;humidity
13585;DHT22;6863;48.402;9.994;2023-01-24T00:01:12;1.20;99.90
13585;DHT22;6863;48.402;9.994;2023-01-24T00:03:37;1.30;99.90
13585;DHT22;6863;48.402;9.994;2023-01-24T00:06:03;1.20;99.90
13585;DHT22;6863;48.402;9.994;2023-01-24T00:08:29;1.20;99.90
13585;DHT22;6863;48.402;9.994;2023-01-24T00:11:02;1.20;99.90
13585;DHT22;6863;48.402;9.994;2023-01-24T00:13:28;1.20;99.90
13585;DHT22;6863;48.402;9.994;2023-01-24T00:16:08;1.20;99.90
13585;DHT22;6863;48.402;9.994;2023-01-24T00:18:35;1.10;99.90
13585;DHT22;6863;48.402;9.994;2023-01-24T00:21:23;1.20;99.90
13585;DHT22;6863;48.402;9.994;2023-01-24T00:23:54;1.20;99.90
13585;DHT22;6863;48.402;9.994;2023-01-24T00:26:21;1.20;99.90
13585;DHT22;6863;48.402;9.994;2023-01-24T00:28:47;1.20;99.90
13585;DHT22;6863;48.402;9.994;2023-01-24T00:31:13;1.20;99.90
13585;DHT22;6863;48.402;9.994;2023-01-24T00:33:39;1.20;99.90
13585;DHT22;6863;48.402;9.994;2023-01-24T00:36:05;1.20;99.90
13585;DHT22;6863;48.402;9.994;2023-01-24T00:38:31;1.20;99.90
13585;DHT22;6863;48.402;9.994;2023-01-24T00:40:57;1.20;99.90
13585;DHT22;6863;48.402;9.994;2023-01-24T00:43:23;1.30;99.90
13585;DHT22;6863;48.402;9.994;2023-01-24T00:45:49;1.20;99.90
13585;DHT22;6863;48.402;9.994;2023-01-24T00:48:15;1.20;99.90
13585;DHT22;6863;48.402;9.994;2023-01-24T00:50:41;1.20;99.90
13585;DHT22;6863;48.402;9.994;2023-01-24T00:53:06;1.20;99.90
13585;DHT22;6863;48.402;9.994;2023-01-24T00:55:32;1.20;99.90
13585;DHT22;6863;48.402;9.994;2023-01-24T00:57:58;1.20;99.90
13585;DHT22;6863;48.402;9.994;2023-01-24T01:00:24;1.20;99.90
13585;DHT22;6863;48.402;9.994;2023-01-24T01:02:50;1.20;99.90
13585;DHT22;6863;48.402;9.994;2023-01-24T01:05:17;1.20;99.90
13585;DHT22;6863;48.402;9.994;2023-01-24T01:07:42;1.20;99.90
13585;DHT22;6863;48.402;9.994;2023-01-24T01:10:08;1.20;99.90
13585;DHT22;6863;48.402;9.994;2023-01-24T01:12:34;1.20;99.90
13585;DHT22;6863;48.402;9.994;2023-01-24T01:15:00;1.10;99.90
13585;DHT22;6863;48.402;9.994;2023-01-24T01:17:26;1.10;99.90
13585;DHT22;6863;48.402;9.994;2023-01-24T01:19:52;1.20;99.90
13585;DHT22;6863;48.402;9.994;2023-01-24T01:22:18;1.20;99.90
13585;DHT22;6863;48.402;9.994;2023-01-24T01:24:44;1.10;99.90
13585;DHT22;6863;48.402;9.994;2023-01-24T01:27:10;1.20;99.90
13585;DHT22;6863;48.402;9.994;2023-01-24T01:29:35;1.10;99.90
13585;DHT22;6863;48.402;9.994;2023-01-24T01:32:01;1.10;99.90
13585;DHT22;6863;48.402;9.994;2023-01-24T01:34:27;1.10;99.90
13585;DHT22;6863;48.402;9.994;2023-01-24T01:36:53;1.10;99.90
13585;DHT22;6863;48.402;9.994;2023-01-24T01:39:18;1.20;99.90
13585;DHT22;6863;48.402;9.994;2023-01-24T01:41:44;1.20;99.90
13585;DHT22;6863;48.402;9.994;2023-01-24T01:44:38;1.20;99.90
13585;DHT22;6863;48.402;9.994;2023-01-24T01:52:42;1.20;99.90
13585;DHT22;6863;48.402;9.994;2023-01-24T01:55:15;1.10;99.90
13585;DHT22;6863;48.402;9.994;2023-01-24T01:57:43;1.10;99.90
13585;DHT22;6863;48.402;9.994;2023-01-24T02:02:36;1.10;99.90
13585;DHT22;6863;48.402;9.994;2023-01-24T02:05:05;1.10;99.90
13585;DHT22;6863;48.402;9.994;2023-01-24T02:07:54;1.10;99.90
13585;DHT22;6863;48.402;9.994;2023-01-24T02:10:23;1.10;99.90
13585;DHT22;6863;48.402;9.994;2023-01-24T02:12:53;1.10;99.90
13585;DHT22;6863;48.402;9.994;2023-01-24T02:15:21;1.10;99.90
13585;DHT22;6863;48.402;9.994;2023-01-24T02:18:09;1.10;99.90
13585;DHT22;6863;48.402;9.994;2023-01-24T02:20:45;1.00;99.90
13585;DHT22;6863;48.402;9.994;2023-01-24T02:28:12;1.10;99.90
13585;DHT22;6863;48.402;9.994;2023-01-24T02:30:38;1.10;99.90
13585;DHT22;6863;48.402;9.994;2023-01-24T02:33:16;1.10;99.90
13585;DHT22;6863;48.402;9.994;2023-01-24T02:35:42;1.10;99.90
13585;DHT22;6863;48.402;9.994;2023-01-24T02:38:15;1.10;99.90
13585;DHT22;6863;48.402;9.994;2023-01-24T02:40:42;1.10;99.90
13585;DHT22;6863;48.402;9.994;2023-01-24T02:43:11;1.10;99.90
13585;DHT22;6863;48.402;9.994;2023-01-24T02:45:38;1.10;99.90
13585;DHT22;6863;48.402;9.994;2023-01-24T02:48:04;1.10;99.90
13585;DHT22;6863;48.402;9.994;2023-01-24T02:50:30;1.10;99.90
13585;DHT22;6863;48.402;9.994;2023-01-24T02:53:17;1.20;99.90
13585;DHT22;6863;48.402;9.994;2023-01-24T02:55:54;1.20;99.90
13585;DHT22;6863;48.402;9.994;2023-01-24T02:58:38;1.20;99.90
13585;DHT22;6863;48.402;9.994;2023-01-24T03:01:04;1.10;99.90
13585;DHT22;6863;48.402;9.994;2023-01-24T03:03:29;1.20;99.90
13585;DHT22;6863;48.402;9.994;2023-01-24T03:05:55;1.10;99.90
13585;DHT22;6863;48.402;9.994;2023-01-24T03:08:25;1.20;99.90
13585;DHT22;6863;48.402;9.994;2023-01-24T03:10:51;1.10;99.90
13585;DHT22;6863;48.402;9.994;2023-01-24T03:13:17;1.10;99.90
13585;DHT22;6863;48.402;9.994;2023-01-24T03:16:03;1.10;99.90
13585;DHT22;6863;48.402;9.994;2023-01-24T03:18:47;1.10;99.90
13585;DHT22;6863;48.402;9.994;2023-01-24T03:21:31;1.10;99.90
13585;DHT22;6863;48.402;9.994;2023-01-24T03:24:15;1.10;99.90
13585;DHT22;6863;48.402;9.994;2023-01-24T03:27:00;1.10;99.90
13585;DHT22;6863;48.402;9.994;2023-01-24T03:29:44;1.20;99.90
13585;DHT22;6863;48.402;9.994;2023-01-24T03:32:28;1.20;99.90
13585;DHT22;6863;48.402;9.994;2023-01-24T03:35:12;1.20;99.90
13585;DHT22;6863;48.402;9.994;2023-01-24T03:37:38;1.10;99.90
13585;DHT22;6863;48.402;9.994;2023-01-24T03:40:22;1.10;99.90
13585;DHT22;6863;48.402;9.994;2023-01-24T03:42:47;1.10;99.90
13585;DHT22;6863;48.402;9.994;2023-01-24T03:45:28;1.10;99.90
13585;DHT22;6863;48.402;9.994;2023-01-24T03:47:59;1.10;99.90
13585;DHT22;6863;48.402;9.994;2023-01-24T03:50:31;1.10;99.90
13585;DHT22;6863;48.402;9.994;2023-01-24T03:53:15;1.10;99.90
13585;DHT22;6863;48.402;9.994;2023-01-24T03:55:41;1.10;99.90
13585;DHT22;6863;48.402;9.994;2023-01-24T03:58:08;1.10;99.90
13585;DHT22;6863;48.402;9.994;2023-01-24T04:00:34;1.10;99.90
13585;DHT22;6863;48.402;9.994;2023-01-24T04:03:00;1.10;99.90
13585;DHT22;6863;48.402;9.994;2023-01-24T04:05:27;1.10;99.90
13585;DHT22;6863;48.402;9.994;2023-01-24T04:07:54;1.10;99.90
13585;DHT22;6863;48.402;9.994;2023-01-24T04:10:20;1.10;99.90
13585;DHT22;6863;48.402;9.994;2023-01-24T04:12:46;1.10;99.90
13585;DHT22;6863;48.402;9.994;2023-01-24T04:15:20;1.10;99.90
13585;DHT22;6863;48.402;9.994;2023-01-24T04:17:46;1.10;99.90
13585;DHT22;6863;48.402;9.994;2023-01-24T04:20:12;1.10;99.90
13585;DHT22;6863;48.402;9.994;2023-01-24T04:22:39;1.10;99.90
13585;DHT22;6863;48.402;9.994;2023-01-24T04:25:05;1.10;99.90
13585;DHT22;6863;48.402;9.994;2023-01-24T04:27:30;1.10;99.90
13585;DHT22;6863;48.402;9.994;2023-01-24T04:29:56;1.10;99.90
13585;DHT22;6863;48.402;9.994;2023-01-24T04:32:21;1.10;99.90
13585;DHT22;6863;48.402;9.994;2023-01-24T04:34:47;1.10;99.90
13585;DHT22;6863;48.402;9.994;2023-01-24T04:37:13;1.10;99.90
13585;DHT22;6863;48.402;9.994;2023-01-24T04:39:38;1.10;99.90
13585;DHT22;6863;48.402;9.994;2023-01-24T04:44:29;1.10;99.90
13585;DHT22;6863;48.402;9.994;2023-01-24T04:46:55;1.10;99.90
13585;DHT22;6863;48.402;9.994;2023-01-24T04:49:20;1.10;99.90
13585;DHT22;6863;48.402;9.994;2023-01-24T04:51:49;1.10;99.90
13585;DHT22;6863;48.402;9.994;2023-01-24T04:54:16;1.10;99.90
13585;DHT22;6863;48.402;9.994;2023-01-24T04:56:42;1.10;99.90
13585;DHT22;6863;48.402;9.994;2023-01-24T04:59:10;1.10;99.90
13585;DHT22;6863;48.402;9.994;2023-01-24T05:01:36;1.10;99.90
13585;DHT22;6863;48.402;9.994;2023-01-24T05:04:01;1.10;99.90
13585;DHT22;6863;48.402;9.994;2023-01-24T05:06:29;1.10;99.90
13585;DHT22;6863;48.402;9.994;2023-01-24T05:08:55;1.10;99.90
13585;DHT22;6863;48.402;9.994;2023-01-24T05:11:21;1.10;99.90
13585;DHT22;6863;48.402;9.994;2023-01-24T05:13:47;1.10;99.90
13585;DHT22;6863;48.402;9.994;2023-01-24T05:16:13;1.10;99.90
13585;DHT22;6863;48.402;9.994;2023-01-24T05:18:39;1.10;99.90
13585;DHT22;6863;48.402;9.994;2023-01-24T05:21:13;1.10;99.90
13585;DHT22;6863;48.402;9.994;2023-01-24T05:23:39;1.10;99.90
13585;DHT22;6863;48.402;9.994;2023-01-24T05:26:05;1.10;99.90
13585;DHT22;6863;48.402;9.994;2023-01-24T05:28:31;1.10;99.90
13585;DHT22;6863;48.402;9.994;2023-01-24T05:31:01;1.10;99.90
13585;DHT22;6863;48.402;9.994;2023-01-24T05:33:27;1.10;99.90
13585;DHT22;6863;48.402;9.994;2023-01-24T05:36:04;1.10;99.90
13585;DHT22;6863;48.402;9.994;2023-01-24T05:38:30;1.10;99.90
13585;DHT22;6863;48.402;9.994;2023-01-24T05:41:00;1.10;99.90
13585;DHT22;6863;48.402;9.994;2023-01-24T05:43:26;1.10;99.90
13585;DHT22;6863;48.402;9.994;2023-01-24T05:46:03;1.20;99.90
13585;DHT22;6863;48.402;9.994;2023-01-24T05:48:30;1.20;99.90
13585;DHT22;6863;48.402;9.994;2023-01-24T05:51:03;1.10;99.90
13585;DHT22;6863;48.402;9.994;2023-01-24T05:53:30;1.20;99.90
13585;DHT22;6863;48.402;9.994;2023-01-24T05:56:01;1.20;99.90
13585;DHT22;6863;48.402;9.994;2023-01-24T05:58:29;1.20;99.90
13585;DHT22;6863;48.402;9.994;2023-01-24T06:00:55;1.20;99.90
13585;DHT22;6863;48.402;9.994;2023-01-24T06:03:21;1.20;99.90
13585;DHT22;6863;48.402;9.994;2023-01-24T06:05:48;1.20;99.90
13585;DHT22;6863;48.402;9.994;2023-01-24T06:08:14;1.20;99.90
13585;DHT22;6863;48.402;9.994;2023-01-24T06:10:40;1.20;99.90
13585;DHT22;6863;48.402;9.994;2023-01-24T06:13:06;1.20;99.90
13585;DHT22;6863;48.402;9.994;2023-01-24T06:15:31;1.20;99.90
13585;DHT22;6863;48.402;9.994;2023-01-24T06:17:57;1.20;99.90
13585;DHT22;6863;48.402;9.994;2023-01-24T06:20:22;1.20;99.90
13585;DHT22;6863;48.402;9.994;2023-01-24T06:22:53;1.20;99.90
13585;DHT22;6863;48.402;9.994;2023-01-24T06:25:22;1.30;99.90
13585;DHT22;6863;48.402;9.994;2023-01-24T06:27:49;1.30;99.90
13585;DHT22;6863;48.402;9.994;2023-01-24T06:30:16;1.30;99.90
13585;DHT22;6863;48.402;9.994;2023-01-24T06:35:47;1.30;99.90
13585;DHT22;6863;48.402;9.994;2023-01-24T06:38:20;1.40;99.90
13585;DHT22;6863;48.402;9.994;2023-01-24T06:40:48;1.30;99.90
13585;DHT22;6863;48.402;9.994;2023-01-24T06:43:16;1.30;99.90
13585;DHT22;6863;48.402;9.994;2023-01-24T06:45:42;1.30;99.90
13585;DHT22;6863;48.402;9.994;2023-01-24T06:48:07;1.30;99.90
13585;DHT22;6863;48.402;9.994;2023-01-24T06:50:33;1.30;99.90
13585;DHT22;6863;48.402;9.994;2023-01-24T06:52:58;1.30;99.90
13585;DHT22;6863;48.402;9.994;2023-01-24T06:55:24;1.30;99.90
13585;DHT22;6863;48.402;9.994;2023-01-24T06:57:57;1.40;99.90
13585;DHT22;6863;48.402;9.994;2023-01-24T07:00:22;1.40;99.90
13585;DHT22;6863;48.402;9.994;2023-01-24T07:02:56;1.40;99.90
13585;DHT22;6863;48.402;9.994;2023-01-24T07:05:21;1.40;99.90
13585;DHT22;6863;48.402;9.994;2023-01-24T07:07:47;1.40;99.90
13585;DHT22;6863;48.402;9.994;2023-01-24T07:10:12;1.40;99.90
13585;DHT22;6863;48.402;9.994;2023-01-24T07:12:41;1.40;99.90
13585;DHT22;6863;48.402;9.994;2023-01-24T07:15:07;1.40;99.90
13585;DHT22;6863;48.402;9.994;2023-01-24T07:17:33;1.40;99.90
13585;DHT22;6863;48.402;9.994;2023-01-24T07:19:59;1.40;99.90
13585;DHT22;6863;48.402;9.994;2023-01-24T07:22:25;1.40;99.90
13585;DHT22;6863;48.402;9.994;2023-01-24T07:24:50;1.40;99.90
13585;DHT22;6863;48.402;9.994;2023-01-24T07:27:16;1.40;99.90
13585;DHT22;6863;48.402;9.994;2023-01-24T07:29:42;1.40;99.90
13585;DHT22;6863;48.402;9.994;2023-01-24T07:32:11;1.50;99.90
13585;DHT22;6863;48.402;9.994;2023-01-24T07:34:37;1.40;99.90
13585;DHT22;6863;48.402;9.994;2023-01-24T07:37:06;1.40;99.90
13585;DHT22;6863;48.402;9.994;2023-01-24T07:39:31;1.40;99.90
13585;DHT22;6863;48.402;9.994;2023-01-24T07:44:28;1.50;99.90
13585;DHT22;6863;48.402;9.994;2023-01-24T07:46:54;1.50;99.90
13585;DHT22;6863;48.402;9.994;2023-01-24T07:49:20;1.50;99.90
13585;DHT22;6863;48.402;9.994;2023-01-24T07:51:45;1.50;99.90
13585;DHT22;6863;48.402;9.994;2023-01-24T07:54:13;1.50;99.90
13585;DHT22;6863;48.402;9.994;2023-01-24T07:56:39;1.50;99.90
13585;DHT22;6863;48.402;9.994;2023-01-24T07:59:05;1.50;99.90
13585;DHT22;6863;48.402;9.994;2023-01-24T08:01:30;1.50;99.90
13585;DHT22;6863;48.402;9.994;2023-01-24T08:03:57;1.50;99.90
13585;DHT22;6863;48.402;9.994;2023-01-24T08:06:23;1.60;99.90
13585;DHT22;6863;48.402;9.994;2023-01-24T08:08:49;1.60;99.90
13585;DHT22;6863;48.402;9.994;2023-01-24T08:11:15;1.60;99.90
13585;DHT22;6863;48.402;9.994;2023-01-24T08:13:46;1.60;99.90
13585;DHT22;6863;48.402;9.994;2023-01-24T08:16:12;1.60;99.90
13585;DHT22;6863;48.402;9.994;2023-01-24T08:18:39;1.60;99.90
13585;DHT22;6863;48.402;9.994;2023-01-24T08:21:06;1.70;99.90
13585;DHT22;6863;48.402;9.994;2023-01-24T08:23:31;1.70;99.90
13585;DHT22;6863;48.402;9.994;2023-01-24T08:25:58;1.70;99.90
13585;DHT22;6863;48.402;9.994;2023-01-24T08:28:24;1.70;99.90
13585;DHT22;6863;48.402;9.994;2023-01-24T08:30:50;1.80;99.90
13585;DHT22;6863;48.402;9.994;2023-01-24T08:33:16;1.90;99.90
13585;DHT22;6863;48.402;9.994;2023-01-24T08:35:42;1.90;99.90
13585;DHT22;6863;48.402;9.994;2023-01-24T08:38:09;1.90;99.90
13585;DHT22;6863;48.402;9.994;2023-01-24T08:40:34;1.90;99.90
13585;DHT22;6863;48.402;9.994;2023-01-24T08:43:00;2.00;99.90
13585;DHT22;6863;48.402;9.994;2023-01-24T08:45:26;2.00;99.90
13585;DHT22;6863;48.402;9.994;2023-01-24T08:47:52;1.90;99.90
13585;DHT22;6863;48.402;9.994;2023-01-24T08:50:19;2.00;99.90
13585;DHT22;6863;48.402;9.994;2023-01-24T08:52:45;2.00;99.90
13585;DHT22;6863;48.402;9.994;2023-01-24T08:55:11;2.10;99.90
13585;DHT22;6863;48.402;9.994;2023-01-24T08:57:36;2.10;99.90
13585;DHT22;6863;48.402;9.994;2023-01-24T09:00:02;2.10;99.90
13585;DHT22;6863;48.402;9.994;2023-01-24T09:02:28;2.10;99.90
13585;DHT22;6863;48.402;9.994;2023-01-24T09:04:54;2.10;99.90
13585;DHT22;6863;48.402;9.994;2023-01-24T09:07:20;2.10;99.90
13585;DHT22;6863;48.402;9.994;2023-01-24T09:09:45;2.10;99.90
13585;DHT22;6863;48.402;9.994;2023-01-24T09:12:11;2.10;99.90
13585;DHT22;6863;48.402;9.994;2023-01-24T09:14:36;2.10;99.90
13585;DHT22;6863;48.402;9.994;2023-01-24T09:17:02;2.10;99.90
13585;DHT22;6863;48.402;9.994;2023-01-24T09:19:28;2.20;99.90
13585;DHT22;6863;48.402;9.994;2023-01-24T09:21:53;2.20;99.90
13585;DHT22;6863;48.402;9.994;2023-01-24T09:24:22;2.20;99.90
13585;DHT22;6863;48.402;9.994;2023-01-24T09:26:48;2.20;99.90
13585;DHT22;6863;48.402;9.994;2023-01-24T09:29:14;2.30;99.90
13585;DHT22;6863;48.402;9.994;2023-01-24T09:31:39;2.30;99.90
13585;DHT22;6863;48.402;9.994;2023-01-24T09:34:05;2.30;99.90
13585;DHT22;6863;48.402;9.994;2023-01-24T09:36:31;2.30;99.90
13585;DHT22;6863;48.402;9.994;2023-01-24T09:38:57;2.40;99.90
13585;DHT22;6863;48.402;9.994;2023-01-24T09:41:38;2.50;99.90
13585;DHT22;6863;48.402;9.994;2023-01-24T09:44:27;2.50;99.90
13585;DHT22;6863;48.402;9.994;2023-01-24T09:46:57;2.40;99.90
13585;DHT22;6863;48.402;9.994;2023-01-24T09:49:36;2.50;99.90
13585;DHT22;6863;48.402;9.994;2023-01-24T09:52:07;2.60;99.90
13585;DHT22;6863;48.402;9.994;2023-01-24T09:54:43;2.60;99.90
13585;DHT22;6863;48.402;9.994;2023-01-24T09:57:40;2.60;99.90
13585;DHT22;6863;48.402;9.994;2023-01-24T10:00:33;2.50;99.90
13585;DHT22;6863;48.402;9.994;2023-01-24T10:03:00;2.70;99.90
13585;DHT22;6863;48.402;9.994;2023-01-24T10:05:37;2.70;99.90
13585;DHT22;6863;48.402;9.994;2023-01-24T10:08:26;2.80;99.90
13585;DHT22;6863;48.402;9.994;2023-01-24T10:11:32;2.80;99.90
13585;DHT22;6863;48.402;9.994;2023-01-24T10:14:02;2.90;99.90
13585;DHT22;6863;48.402;9.994;2023-01-24T10:16:42;2.80;99.90
13585;DHT22;6863;48.402;9.994;2023-01-24T10:25:44;2.90;99.90
13585;DHT22;6863;48.402;9.994;2023-01-24T10:28:19;2.80;99.90
13585;DHT22;6863;48.402;9.994;2023-01-24T10:31:00;2.80;99.90
13585;DHT22;6863;48.402;9.994;2023-01-24T10:33:49;2.90;99.90
13585;DHT22;6863;48.402;9.994;2023-01-24T10:36:30;2.90;99.90
13585;DHT22;6863;48.402;9.994;2023-01-24T10:38:58;2.90;99.90
13585;DHT22;6863;48.402;9.994;2023-01-24T10:41:25;3.00;99.90
13585;DHT22;6863;48.402;9.994;2023-01-24T10:44:14;3.00;99.90
13585;DHT22;6863;48.402;9.994;2023-01-24T10:49:22;3.00;99.90
13585;DHT22;6863;48.402;9.994;2023-01-24T10:55:03;3.10;99.90
13585;DHT22;6863;48.402;9.994;2023-01-24T10:57:39;3.10;99.90
13585;DHT22;6863;48.402;9.994;2023-01-24T11:00:30;3.20;99.90
13585;DHT22;6863;48.402;9.994;2023-01-24T11:03:04;3.20;99.90
13585;DHT22;6863;48.402;9.994;2023-01-24T11:05:45;3.10;99.90
13585;DHT22;6863;48.402;9.994;2023-01-24T11:08:22;3.10;99.90
13585;DHT22;6863;48.402;9.994;2023-01-24T11:10:54;3.10;99.90
13585;DHT22;6863;48.402;9.994;2023-01-24T11:13:39;3.20;99.90
13585;DHT22;6863;48.402;9.994;2023-01-24T11:18:48;3.20;99.90
13585;DHT22;6863;48.402;9.994;2023-01-24T11:21:17;3.20;99.90
13585;DHT22;6863;48.402;9.994;2023-01-24T11:23:44;3.30;99.90
13585;DHT22;6863;48.402;9.994;2023-01-24T11:26:27;3.30;99.90
13585;DHT22;6863;48.402;9.994;2023-01-24T11:29:18;3.50;99.90
13585;DHT22;6863;48.402;9.994;2023-01-24T11:31:45;3.50;99.90
13585;DHT22;6863;48.402;9.994;2023-01-24T11:42:38;3.40;99.90
13585;DHT22;6863;48.402;9.994;2023-01-24T11:50:42;3.60;99.90
13585;DHT22;6863;48.402;9.994;2023-01-24T12:10:53;4.10;99.90
13585;DHT22;6863;48.402;9.994;2023-01-24T12:13:39;4.00;99.90
13585;DHT22;6863;48.402;9.994;2023-01-24T12:16:42;3.90;99.90
13585;DHT22;6863;48.402;9.994;2023-01-24T12:21:49;4.10;99.90
13585;DHT22;6863;48.402;9.994;2023-01-24T12:24:23;4.10;99.90
13585;DHT22;6863;48.402;9.994;2023-01-24T12:26:54;4.10;99.90
13585;DHT22;6863;48.402;9.994;2023-01-24T12:29:37;4.10;99.90
13585;DHT22;6863;48.402;9.994;2023-01-24T12:32:17;4.10;99.90
13585;DHT22;6863;48.402;9.994;2023-01-24T12:39:52;4.00;99.90
13585;DHT22;6863;48.402;9.994;2023-01-24T12:42:26;3.90;99.90
13585;DHT22;6863;48.402;9.994;2023-01-24T12:45:05;3.90;99.90
13585;DHT22;6863;48.402;9.994;2023-01-24T12:47:52;3.90;99.90
13585;DHT22;6863;48.402;9.994;2023-01-24T12:50:46;3.90;99.90
13585;DHT22;6863;48.402;9.994;2023-01-24T12:56:02;3.80;99.90
13585;DHT22;6863;48.402;9.994;2023-01-24T12:58:40;3.90;99.90
13585;DHT22;6863;48.402;9.994;2023-01-24T13:11:58;3.90;99.90
13585;DHT22;6863;48.402;9.994;2023-01-24T13:14:28;3.90;99.90
13585;DHT22;6863;48.402;9.994;2023-01-24T13:17:05;3.90;99.90
13585;DHT22;6863;48.402;9.994;2023-01-24T13:30:37;3.90;99.90
13585;DHT22;6863;48.402;9.994;2023-01-24T13:33:04;3.80;99.90
13585;DHT22;6863;48.402;9.994;2023-01-24T13:35:31;3.70;99.90
13585;DHT22;6863;48.402;9.994;2023-01-24T13:38:17;3.80;99.90
13585;DHT22;6863;48.402;9.994;2023-01-24T13:41:05;3.70;99.90
13585;DHT22;6863;48.402;9.994;2023-01-24T13:46:03;3.70;99.90
13585;DHT22;6863;48.402;9.994;2023-01-24T13:48:55;3.70;99.90
13585;DHT22;6863;48.402;9.994;2023-01-24T13:51:33;3.70;99.90
13585;DHT22;6863;48.402;9.994;2023-01-24T13:54:01;3.70;99.90
13585;DHT22;6863;48.402;9.994;2023-01-24T13:56:27;3.70;99.90
13585;DHT22;6863;48.402;9.994;2023-01-24T13:58:54;3.80;99.90
13585;DHT22;6863;48.402;9.994;2023-01-24T14:01:20;3.70;99.90
13585;DHT22;6863;48.402;9.994;2023-01-24T14:04:03;3.70;99.90
13585;DHT22;6863;48.402;9.994;2023-01-24T14:06:41;3.70;99.90
13585;DHT22;6863;48.402;9.994;2023-01-24T14:09:25;3.70;99.90
13585;DHT22;6863;48.402;9.994;2023-01-24T14:12:01;3.70;99.90
13585;DHT22;6863;48.402;9.994;2023-01-24T14:14:34;3.70;99.90
13585;DHT22;6863;48.402;9.994;2023-01-24T14:17:03;3.60;99.90
13585;DHT22;6863;48.402;9.994;2023-01-24T14:19:35;3.60;99.90
13585;DHT22;6863;48.402;9.994;2023-01-24T14:24:53;3.50;99.90
13585;DHT22;6863;48.402;9.994;2023-01-24T14:27:29;3.50;99.90
13585;DHT22;6863;48.402;9.994;2023-01-24T14:30:15;3.50;99.90
13585;DHT22;6863;48.402;9.994;2023-01-24T14:32:49;3.50;99.90
13585;DHT22;6863;48.402;9.994;2023-01-24T14:35:27;3.50;99.90
13585;DHT22;6863;48.402;9.994;2023-01-24T14:37:53;3.50;99.90
13585;DHT22;6863;48.402;9.994;2023-01-24T14:40:38;3.50;99.90
13585;DHT22;6863;48.402;9.994;2023-01-24T14:43:05;3.50;99.90
13585;DHT22;6863;48.402;9.994;2023-01-24T14:45:32;3.40;99.90
13585;DHT22;6863;48.402;9.994;2023-01-24T14:48:00;3.30;99.90
13585;DHT22;6863;48.402;9.994;2023-01-24T14:50:30;3.30;99.90
13585;DHT22;6863;48.402;9.994;2023-01-24T14:53:00;3.20;99.90
13585;DHT22;6863;48.402;9.994;2023-01-24T14:57:52;3.20;99.90
13585;DHT22;6863;48.402;9.994;2023-01-24T15:00:19;3.10;99.90
13585;DHT22;6863;48.402;9.994;2023-01-24T15:02:59;3.10;99.90
13585;DHT22;6863;48.402;9.994;2023-01-24T15:07:58;3.10;99.90
13585;DHT22;6863;48.402;9.994;2023-01-24T15:10:35;3.00;99.90
13585;DHT22;6863;48.402;9.994;2023-01-24T15:13:05;3.00;99.90
13585;DHT22;6863;48.402;9.994;2023-01-24T15:15:31;3.00;99.90
13585;DHT22;6863;48.402;9.994;2023-01-24T15:18:05;3.00;99.90
13585;DHT22;6863;48.402;9.994;2023-01-24T15:20:32;3.00;99.90
13585;DHT22;6863;48.402;9.994;2023-01-24T15:23:00;3.00;99.90
13585;DHT22;6863;48.402;9.994;2023-01-24T15:25:31;3.00;99.90
13585;DHT22;6863;48.402;9.994;2023-01-24T15:28:18;3.00;99.90
13585;DHT22;6863;48.402;9.994;2023-01-24T15:30:55;2.90;99.90
13585;DHT22;6863;48.402;9.994;2023-01-24T15:33:22;2.90;99.90
13585;DHT22;6863;48.402;9.994;2023-01-24T15:35:48;2.90;99.90
13585;DHT22;6863;48.402;9.994;2023-01-24T15:38:20;2.90;99.90
13585;DHT22;6863;48.402;9.994;2023-01-24T15:43:26;2.90;99.90
13585;DHT22;6863;48.402;9.994;2023-01-24T15:46:20;2.90;99.90
13585;DHT22;6863;48.402;9.994;2023-01-24T15:49:26;2.90;99.90
13585;DHT22;6863;48.402;9.994;2023-01-24T15:54:28;2.80;99.90
13585;DHT22;6863;48.402;9.994;2023-01-24T15:56:58;2.80;99.90
13585;DHT22;6863;48.402;9.994;2023-01-24T15:59:24;2.80;99.90
13585;DHT22;6863;48.402;9.994;2023-01-24T16:01:50;2.70;99.90
13585;DHT22;6863;48.402;9.994;2023-01-24T16:04:19;2.70;99.90
13585;DHT22;6863;48.402;9.994;2023-01-24T16:06:45;2.70;99.90
13585;DHT22;6863;48.402;9.994;2023-01-24T16:09:11;2.60;99.90
13585;DHT22;6863;48.402;9.994;2023-01-24T16:11:43;2.60;99.90
13585;DHT22;6863;48.402;9.994;2023-01-24T16:14:20;2.60;99.90
13585;DHT22;6863;48.402;9.994;2023-01-24T16:16:47;2.50;99.90
13585;DHT22;6863;48.402;9.994;2023-01-24T16:19:16;2.60;99.90
13585;DHT22;6863;48.402;9.994;2023-01-24T16:21:43;2.50;99.90
13585;DHT22;6863;48.402;9.994;2023-01-24T16:24:08;2.50;99.90
13585;DHT22;6863;48.402;9.994;2023-01-24T16:26:34;2.50;99.90
13585;DHT22;6863;48.402;9.994;2023-01-24T16:29:00;2.50;99.90
13585;DHT22;6863;48.402;9.994;2023-01-24T16:31:25;2.50;99.90
13585;DHT22;6863;48.402;9.994;2023-01-24T16:33:51;2.50;99.90
13585;DHT22;6863;48.402;9.994;2023-01-24T16:36:16;2.50;99.90
13585;DHT22;6863;48.402;9.994;2023-01-24T16:38:43;2.50;99.90
13585;DHT22;6863;48.402;9.994;2023-01-24T16:41:11;2.50;99.90
13585;DHT22;6863;48.402;9.994;2023-01-24T16:43:39;2.50;99.90
13585;DHT22;6863;48.402;9.994;2023-01-24T16:46:19;2.50;99.90
13585;DHT22;6863;48.402;9.994;2023-01-24T16:48:45;2.50;99.90
13585;DHT22;6863;48.402;9.994;2023-01-24T16:51:13;2.50;99.90
13585;DHT22;6863;48.402;9.994;2023-01-24T16:53:39;2.50;99.90
13585;DHT22;6863;48.402;9.994;2023-01-24T16:56:05;2.60;99.90
13585;DHT22;6863;48.402;9.994;2023-01-24T16:58:30;2.60;99.90
13585;DHT22;6863;48.402;9.994;2023-01-24T17:00:56;2.60;99.90
13585;DHT22;6863;48.402;9.994;2023-01-24T17:03:21;2.60;99.90
13585;DHT22;6863;48.402;9.994;2023-01-24T17:05:47;2.60;99.90
13585;DHT22;6863;48.402;9.994;2023-01-24T17:08:14;2.60;99.90
13585;DHT22;6863;48.402;9.994;2023-01-24T17:10:41;2.60;99.90
13585;DHT22;6863;48.402;9.994;2023-01-24T17:13:08;2.60;99.90
13585;DHT22;6863;48.402;9.994;2023-01-24T17:15:37;2.60;99.90
13585;DHT22;6863;48.402;9.994;2023-01-24T17:18:04;2.60;99.90
13585;DHT22;6863;48.402;9.994;2023-01-24T17:20:30;2.60;99.90
13585;DHT22;6863;48.402;9.994;2023-01-24T17:22:57;2.60;99.90
13585;DHT22;6863;48.402;9.994;2023-01-24T17:25:29;2.60;99.90
13585;DHT22;6863;48.402;9.994;2023-01-24T17:27:55;2.60;99.90
13585;DHT22;6863;48.402;9.994;2023-01-24T17:30:21;2.60;99.90
13585;DHT22;6863;48.402;9.994;2023-01-24T17:32:46;2.60;99.90
13585;DHT22;6863;48.402;9.994;2023-01-24T17:35:12;2.60;99.90
13585;DHT22;6863;48.402;9.994;2023-01-24T17:37:37;2.60;99.90
13585;DHT22;6863;48.402;9.994;2023-01-24T17:40:03;2.60;99.90
13585;DHT22;6863;48.402;9.994;2023-01-24T17:42:29;2.50;99.90
13585;DHT22;6863;48.402;9.994;2023-01-24T17:44:55;2.60;99.90
13585;DHT22;6863;48.402;9.994;2023-01-24T17:47:22;2.50;99.90
13585;DHT22;6863;48.402;9.994;2023-01-24T17:49:47;2.60;99.90
13585;DHT22;6863;48.402;9.994;2023-01-24T17:52:13;2.50;99.90
13585;DHT22;6863;48.402;9.994;2023-01-24T17:54:38;2.60;99.90
13585;DHT22;6863;48.402;9.994;2023-01-24T17:57:04;2.50;99.90
13585;DHT22;6863;48.402;9.994;2023-01-24T17:59:29;2.50;99.90
13585;DHT22;6863;48.402;9.994;2023-01-24T18:01:55;2.50;99.90
13585;DHT22;6863;48.402;9.994;2023-01-24T18:04:21;2.50;99.90
13585;DHT22;6863;48.402;9.994;2023-01-24T18:06:46;2.40;99.90
13585;DHT22;6863;48.402;9.994;2023-01-24T18:09:12;2.40;99.90
13585;DHT22;6863;48.402;9.994;2023-01-24T18:11:37;2.40;99.90
13585;DHT22;6863;48.402;9.994;2023-01-24T18:14:03;2.40;99.90
13585;DHT22;6863;48.402;9.994;2023-01-24T18:16:29;2.40;99.90